createdAt,value
2019-06-27T00:01:05.656Z,8.47
2019-06-27T00:05:29.321Z,8.57
2019-06-27T00:09:53.024Z,8.50
2019-06-27T00:14:16.766Z,7.40
2019-06-27T00:18:40.466Z,7.20
2019-06-27T00:23:05.535Z,7.37
2019-06-27T00:27:29.538Z,7.50
2019-06-27T00:31:53.221Z,6.60
2019-06-27T00:36:16.913Z,6.53
2019-06-27T00:40:40.580Z,6.83
2019-06-27T00:45:05.202Z,6.23
2019-06-27T00:49:28.864Z,6.63
2019-06-27T00:53:52.553Z,6.20
2019-06-27T00:58:16.221Z,6.80
2019-06-27T01:02:39.907Z,7.93
2019-06-27T01:07:03.596Z,7.97
2019-06-27T01:11:27.512Z,7.73
2019-06-27T01:15:51.192Z,6.60
2019-06-27T01:20:16.905Z,7.20
2019-06-27T01:24:40.580Z,5.90
2019-06-27T01:29:05.276Z,6.45
2019-06-27T01:33:28.962Z,6.10
2019-06-27T01:37:52.632Z,6.73
2019-06-27T01:42:17.343Z,6.20
2019-06-27T01:46:41.255Z,6.50
2019-06-27T01:51:04.927Z,7.63
2019-06-27T01:55:28.625Z,6.63
2019-06-27T01:59:52.284Z,6.63
2019-06-27T02:04:15.956Z,6.87
2019-06-27T02:08:39.637Z,6.97
2019-06-27T02:13:03.379Z,7.70
2019-06-27T02:17:27.057Z,7.93
2019-06-27T02:21:50.981Z,7.77
2019-06-27T02:26:14.798Z,6.63
2019-06-27T02:30:40.426Z,7.50
2019-06-27T02:35:05.000Z,6.62
2019-06-27T02:39:28.955Z,6.80
2019-06-27T02:43:52.611Z,6.93
2019-06-27T02:52:46.036Z,8.27
2019-06-27T02:57:09.957Z,8.63
2019-06-27T03:01:33.622Z,7.00
2019-06-27T03:05:57.390Z,6.50
2019-06-27T03:10:21.257Z,5.63
2019-06-27T03:14:44.934Z,5.97
2019-06-27T03:19:12.420Z,7.03
2019-06-27T03:23:36.111Z,6.53
2019-06-27T03:27:59.786Z,6.03
2019-06-27T03:32:23.469Z,5.73
2019-06-27T03:36:47.208Z,6.10
2019-06-27T03:41:11.855Z,6.10
2019-06-27T03:45:35.526Z,6.20
2019-06-27T03:50:00.535Z,6.37
2019-06-27T03:54:24.204Z,6.00
2019-06-27T03:58:47.886Z,5.95
2019-06-27T04:03:11.643Z,6.40
2019-06-27T04:07:35.327Z,4.90
2019-06-27T04:11:59.246Z,6.30
2019-06-27T04:16:23.316Z,5.58
2019-06-27T04:20:46.994Z,5.90
2019-06-27T04:25:19.332Z,6.20
2019-06-27T04:29:43.255Z,5.77
2019-06-27T04:34:07.023Z,5.80
2019-06-27T04:38:30.708Z,5.37
2019-06-27T04:42:54.551Z,5.30
2019-06-27T04:47:18.225Z,5.83
2019-06-27T04:51:44.346Z,5.33
2019-06-27T04:56:09.010Z,5.53
2019-06-27T05:00:32.816Z,5.27
2019-06-27T05:04:56.486Z,5.00
2019-06-27T05:09:20.163Z,5.37
2019-06-27T05:13:43.816Z,5.73
2019-06-27T05:18:07.497Z,5.80
2019-06-27T05:22:31.169Z,4.83
2019-06-27T05:26:55.097Z,5.40
2019-06-27T05:31:18.810Z,4.62
2019-06-27T05:35:42.491Z,4.87
2019-06-27T05:40:06.317Z,5.00
2019-06-27T05:44:30.001Z,4.13
2019-06-27T05:48:53.916Z,4.30
2019-06-27T05:53:17.583Z,4.60
2019-06-27T05:57:41.263Z,4.30
2019-06-27T06:02:05.044Z,4.73
2019-06-27T06:06:28.773Z,5.10
2019-06-27T06:10:52.606Z,4.87
2019-06-27T06:15:16.419Z,4.33
2019-06-27T06:19:41.065Z,4.53
2019-06-27T06:24:04.977Z,4.60
2019-06-27T06:28:28.650Z,5.57
2019-06-27T06:32:52.334Z,5.13
2019-06-27T06:37:16.001Z,4.30
2019-06-27T06:41:39.697Z,4.50
2019-06-27T06:46:03.379Z,4.13
2019-06-27T06:50:27.067Z,4.57
2019-06-27T06:54:50.747Z,4.77
2019-06-27T06:59:14.431Z,4.20
2019-06-27T07:03:38.097Z,4.13
2019-06-27T07:08:01.782Z,5.10
2019-06-27T07:12:25.574Z,4.67
2019-06-27T07:16:49.209Z,4.50
2019-06-27T07:21:13.125Z,4.20
2019-06-27T07:25:36.790Z,4.70
2019-06-27T07:30:00.457Z,4.83
2019-06-27T07:34:24.133Z,4.27
2019-06-27T07:38:47.814Z,4.20
2019-06-27T07:43:11.498Z,4.15
2019-06-27T07:47:35.412Z,4.00
2019-06-27T07:51:59.590Z,4.20
2019-06-27T07:56:23.262Z,3.70
2019-06-27T08:00:46.933Z,3.77
2019-06-27T08:05:12.573Z,3.65
2019-06-27T08:09:36.246Z,3.70
2019-06-27T08:13:59.930Z,3.77
2019-06-27T08:18:23.612Z,3.73
2019-06-27T08:22:47.296Z,4.03
2019-06-27T08:27:12.701Z,3.87
2019-06-27T08:31:50.578Z,4.23
2019-06-27T08:36:01.851Z,3.80
2019-06-27T08:44:54.796Z,3.35
2019-06-27T08:49:18.450Z,3.67
2019-06-27T08:53:42.132Z,3.70
2019-06-27T08:58:05.854Z,3.50
2019-06-27T09:02:30.526Z,3.20
2019-06-27T09:06:54.217Z,3.57
2019-06-27T09:11:19.035Z,3.20
2019-06-27T09:15:43.006Z,3.43
2019-06-27T09:20:07.817Z,3.23
2019-06-27T09:24:31.576Z,3.03
2019-06-27T09:28:55.252Z,3.37
2019-06-27T09:33:18.931Z,3.10
2019-06-27T09:37:42.968Z,3.60
2019-06-27T09:42:06.653Z,3.20
2019-06-27T09:46:30.365Z,3.20
2019-06-27T09:50:54.102Z,3.07
2019-06-27T09:55:18.326Z,3.47
2019-06-27T09:59:42.084Z,3.50
2019-06-27T10:04:05.768Z,3.57
2019-06-27T10:08:29.445Z,4.13
2019-06-27T10:12:53.262Z,3.83
2019-06-27T10:17:16.931Z,4.10
2019-06-27T10:21:40.839Z,3.37
2019-06-27T10:26:04.928Z,4.27
2019-06-27T10:30:28.788Z,3.40
2019-06-27T10:34:53.442Z,3.10
2019-06-27T10:39:17.221Z,3.73
2019-06-27T10:43:41.255Z,3.63
2019-06-27T10:48:04.921Z,2.97
2019-06-27T10:52:28.592Z,3.13
2019-06-27T10:56:52.257Z,3.70
2019-06-27T11:01:16.017Z,3.40
2019-06-27T11:05:40.086Z,3.50
2019-06-27T11:10:09.064Z,3.87
2019-06-27T11:14:32.763Z,3.20
2019-06-27T11:18:56.470Z,3.70
2019-06-27T11:23:20.220Z,3.07
2019-06-27T11:27:43.910Z,3.10
2019-06-27T11:32:07.673Z,3.33
2019-06-27T11:36:31.356Z,3.30
2019-06-27T11:40:55.113Z,3.00
2019-06-27T11:45:19.118Z,3.80
2019-06-27T11:49:42.799Z,3.07
2019-06-27T11:54:06.468Z,3.73
2019-06-27T11:58:30.213Z,3.73
2019-06-27T12:02:55.172Z,3.50
2019-06-27T12:07:18.844Z,4.17
2019-06-27T12:11:42.899Z,3.40
2019-06-27T12:16:07.897Z,4.47
2019-06-27T12:20:31.594Z,4.07
2019-06-27T12:24:55.357Z,3.57
2019-06-27T12:29:19.033Z,3.30
2019-06-27T12:33:42.708Z,3.70
2019-06-27T12:38:06.424Z,3.23
2019-06-27T12:42:32.738Z,3.80
2019-06-27T12:46:55.811Z,3.23
2019-06-27T12:51:19.614Z,3.40
2019-06-27T12:55:43.301Z,3.67
2019-06-27T13:00:09.000Z,3.07
2019-06-27T13:04:32.937Z,5.67
2019-06-27T13:08:56.614Z,3.10
2019-06-27T13:13:20.438Z,3.00
2019-06-27T13:17:44.456Z,3.47
2019-06-27T13:22:08.352Z,3.20
2019-06-27T13:26:36.447Z,2.90
2019-06-27T13:31:00.126Z,3.30
2019-06-27T13:35:24.006Z,3.00
2019-06-27T13:39:47.767Z,2.80
2019-06-27T13:44:11.448Z,2.47
2019-06-27T13:48:35.126Z,2.60
2019-06-27T13:52:58.835Z,2.63
2019-06-27T13:57:22.801Z,2.85
2019-06-27T14:01:46.497Z,2.60
2019-06-27T14:06:10.197Z,2.60
2019-06-27T14:10:33.929Z,2.33
2019-06-27T14:14:59.980Z,2.70
2019-06-27T14:19:23.611Z,2.40
2019-06-27T14:23:47.286Z,2.20
2019-06-27T14:28:11.052Z,2.10
2019-06-27T14:32:34.833Z,2.50
2019-06-27T14:36:58.541Z,2.50
2019-06-27T14:41:22.228Z,2.83
2019-06-27T14:45:45.906Z,2.43
2019-06-27T14:50:10.467Z,3.17
2019-06-27T14:54:34.163Z,2.70
2019-06-27T14:58:57.911Z,2.90
2019-06-27T15:03:21.573Z,3.15
2019-06-27T15:07:45.307Z,3.10
2019-06-27T15:12:08.980Z,3.17
2019-06-27T15:16:32.766Z,2.95
2019-06-27T15:20:56.811Z,3.30
2019-06-27T15:25:22.048Z,3.40
2019-06-27T15:29:45.888Z,3.43
2019-06-27T15:34:10.601Z,3.87
2019-06-27T15:38:34.275Z,4.67
2019-06-27T15:42:57.946Z,3.60
2019-06-27T15:47:21.692Z,3.00
2019-06-27T15:51:45.372Z,3.80
2019-06-27T15:56:09.057Z,2.90
2019-06-27T16:00:32.763Z,2.50
2019-06-27T16:04:56.437Z,2.30
2019-06-27T16:09:20.183Z,2.80
2019-06-27T16:13:44.348Z,2.30
2019-06-27T16:18:08.248Z,3.03
2019-06-27T16:22:32.020Z,2.35
2019-06-27T16:26:57.136Z,2.23
2019-06-27T16:31:20.874Z,2.27
2019-06-27T16:35:44.799Z,1.90
2019-06-27T16:40:09.428Z,2.30
2019-06-27T16:44:34.592Z,2.07
2019-06-27T16:48:58.269Z,2.33
2019-06-27T16:53:21.965Z,2.10
2019-06-27T16:57:45.661Z,2.67
2019-06-27T17:02:09.442Z,2.23
2019-06-27T17:06:42.238Z,2.80
2019-06-27T17:10:58.974Z,2.70
2019-06-27T17:15:22.921Z,2.50
2019-06-27T17:19:46.624Z,3.33
2019-06-27T17:24:10.284Z,3.13
2019-06-27T17:28:35.427Z,3.05
2019-06-27T17:32:59.125Z,4.40
2019-06-27T17:37:22.986Z,3.92
2019-06-27T17:41:46.674Z,3.87
2019-06-27T17:46:10.727Z,4.77
2019-06-27T17:50:34.423Z,4.67
2019-06-27T17:54:58.102Z,4.30
2019-06-27T17:59:21.794Z,4.23
2019-06-27T18:03:45.467Z,4.07
2019-06-27T18:08:09.164Z,5.20
2019-06-27T18:12:32.853Z,4.63
2019-06-27T18:16:56.622Z,4.60
2019-06-27T18:21:20.306Z,4.37
2019-06-27T18:25:45.004Z,4.93
2019-06-27T18:30:09.354Z,4.63
2019-06-27T18:34:33.730Z,4.73
2019-06-27T18:38:57.426Z,4.57
2019-06-27T18:43:21.097Z,4.50
2019-06-27T18:47:45.890Z,3.80
2019-06-27T18:52:09.916Z,3.90
2019-06-27T18:56:33.960Z,4.47
2019-06-27T19:00:57.722Z,4.37
2019-06-27T19:05:22.856Z,4.28
2019-06-27T19:09:46.616Z,3.80
2019-06-27T19:14:11.252Z,4.30
2019-06-27T19:18:44.591Z,4.70
2019-06-27T19:23:25.669Z,7.53
2019-06-27T19:27:49.354Z,5.30
2019-06-27T19:32:13.048Z,4.70
2019-06-27T19:36:36.790Z,4.00
2019-06-27T19:41:00.468Z,4.27
2019-06-27T19:45:25.464Z,4.50
2019-06-27T19:49:49.138Z,5.03
2019-06-27T19:54:12.818Z,4.58
2019-06-27T19:58:36.571Z,4.43
2019-06-27T20:03:02.439Z,4.80
2019-06-27T20:07:26.069Z,4.77
2019-06-27T20:11:50.054Z,4.87
2019-06-27T20:16:13.741Z,4.50
2019-06-27T20:20:37.433Z,4.30
2019-06-27T20:25:01.350Z,4.27
2019-06-27T20:29:25.202Z,3.87
2019-06-27T20:33:48.928Z,4.70
2019-06-27T20:38:12.679Z,5.07
2019-06-27T20:42:36.372Z,4.07
2019-06-27T20:47:00.070Z,4.50
2019-06-27T20:51:23.876Z,4.90
2019-06-27T20:55:47.702Z,4.73
2019-06-27T21:00:11.792Z,4.60
2019-06-27T21:04:35.466Z,5.00
2019-06-27T21:08:59.150Z,4.90
2019-06-27T21:13:22.908Z,4.80
2019-06-27T21:17:46.940Z,5.07
2019-06-27T21:22:10.698Z,4.87
2019-06-27T21:26:34.643Z,4.77
2019-06-27T21:30:58.309Z,5.47
2019-06-27T21:35:22.011Z,5.13
2019-06-27T21:39:45.687Z,4.87
2019-06-27T21:44:10.586Z,5.00
2019-06-27T21:48:34.263Z,5.47
2019-06-27T21:52:58.226Z,5.60
2019-06-27T21:57:22.442Z,6.33
2019-06-27T22:01:46.301Z,5.70
2019-06-27T22:06:10.285Z,5.30
2019-06-27T22:10:34.118Z,5.20
2019-06-27T22:14:57.878Z,5.53
2019-06-27T22:19:21.547Z,6.20
2019-06-27T22:23:45.226Z,6.07
2019-06-27T22:28:08.972Z,5.50
2019-06-27T22:32:33.618Z,5.40
2019-06-27T22:37:04.141Z,5.67
2019-06-27T22:41:45.583Z,5.40
2019-06-27T22:46:27.317Z,5.27
2019-06-27T22:51:10.769Z,5.30
2019-06-27T22:55:35.750Z,5.50
2019-06-27T22:59:59.440Z,6.03
2019-06-27T23:04:23.358Z,6.30
2019-06-27T23:08:47.308Z,6.97
2019-06-27T23:13:11.005Z,7.85
2019-06-27T23:17:35.016Z,10.63
2019-06-27T23:21:58.717Z,10.90
2019-06-27T23:26:22.473Z,11.37
2019-06-27T23:30:47.151Z,11.10
2019-06-27T23:35:11.085Z,11.40
2019-06-27T23:39:34.779Z,10.87
2019-06-27T23:43:58.486Z,10.80
2019-06-27T23:48:22.176Z,11.93
2019-06-27T23:52:45.878Z,11.30
2019-06-27T23:57:09.818Z,10.63
